KCOS

Colorado Springs Airport

Airport
ICAO code
KCOS
IATA Code
COS
Summary
ICAO Region
NAM
ICAO Territory
Location

Colorado Springs, Colorado

Serving
Colorado Springs
Elevation
6187 ft
Coordinates
38° 48' 21" N , 104° 42' 3" W
KCC
Airport BS
Bird Strike
Airport LOS
Parallel Runway Operation
Airport RE
Hot and High Operations
Airport WX
Lightning
Metar
KCOS 201419Z 15010KT 1 1/4SM -FZDZ BR OVC002 M02/M02 A3031 RMK AO2 SFC VIS 2 1/2 FZRAB13E15FZDZB15 P0000 I1001 T10171022

Description

Joint use civil and military (USAF) international airport located 6 nm south east of Colorado Springs.

Airport map

Aerial View

SKYbrary Partners:

Safety knowledge contributed by: